createdAt,value
2017-03-19T00:00:56.890Z,728.7
2017-03-19T00:01:56.869Z,728.83
2017-03-19T00:02:56.851Z,728.57
2017-03-19T00:03:56.833Z,728.84
2017-03-19T00:04:56.813Z,728.38
2017-03-19T00:05:56.794Z,728.65
2017-03-19T00:06:56.772Z,728.71
2017-03-19T00:07:56.756Z,728.25
2017-03-19T00:08:56.733Z,728.58
2017-03-19T00:09:56.718Z,728.65
2017-03-19T00:10:56.693Z,728.63
2017-03-19T00:11:56.675Z,728.52
2017-03-19T00:12:56.657Z,728.35
2017-03-19T00:13:56.640Z,728.38
2017-03-19T00:14:56.619Z,728.64
2017-03-19T00:15:56.598Z,728.48
2017-03-19T00:16:56.579Z,728.54
2017-03-19T00:17:56.558Z,728.62
2017-03-19T00:18:56.544Z,728.58
2017-03-19T00:19:56.524Z,728.72
2017-03-19T00:20:56.501Z,728.34
2017-03-19T00:21:56.483Z,728.55
2017-03-19T00:22:56.468Z,728.68
2017-03-19T00:23:56.448Z,728.6
2017-03-19T00:24:56.425Z,728.42
2017-03-19T00:25:56.409Z,728.32
2017-03-19T00:26:56.391Z,728.39
2017-03-19T00:27:56.375Z,728.23
2017-03-19T00:28:56.350Z,728.67
2017-03-19T00:29:56.328Z,728.52
2017-03-19T00:30:56.313Z,728.32
2017-03-19T00:31:56.289Z,728.38
2017-03-19T00:32:56.274Z,728.66
2017-03-19T00:33:56.254Z,728.84
2017-03-19T00:34:56.235Z,728.42
2017-03-19T00:35:56.211Z,728.39
2017-03-19T00:36:56.196Z,728.61
2017-03-19T00:37:56.176Z,728.56
2017-03-19T00:38:56.157Z,728.5
2017-03-19T00:39:56.133Z,728.51
2017-03-19T00:40:56.118Z,728.36
2017-03-19T00:41:56.099Z,728.65
2017-03-19T00:42:56.078Z,728.62
2017-03-19T00:43:56.055Z,728.61
2017-03-19T00:44:56.040Z,728.36
2017-03-19T00:45:56.021Z,728.33
2017-03-19T00:46:55.996Z,728.19
2017-03-19T00:47:56.015Z,728.48
2017-03-19T00:48:55.962Z,728.81
2017-03-19T00:49:55.939Z,728.59
2017-03-19T00:50:55.922Z,728.35
2017-03-19T00:51:55.899Z,728.29
2017-03-19T00:52:55.882Z,728.48
2017-03-19T00:53:55.862Z,728.56
2017-03-19T00:54:55.845Z,728.54
2017-03-19T00:55:55.823Z,728.43
2017-03-19T00:56:55.807Z,728.43
2017-03-19T00:57:55.784Z,728.52
2017-03-19T00:58:55.768Z,728.72
2017-03-19T00:59:55.746Z,728.62
2017-03-19T01:00:55.726Z,728.66
2017-03-19T01:01:55.710Z,728.58
2017-03-19T01:02:55.691Z,728.52
2017-03-19T01:03:55.667Z,728.54
2017-03-19T01:04:55.650Z,728.12
2017-03-19T01:05:55.633Z,728.44
2017-03-19T01:06:55.615Z,728.26
2017-03-19T01:07:55.595Z,728.5
2017-03-19T01:08:55.576Z,728.17
2017-03-19T01:09:55.557Z,728.08
2017-03-19T01:10:55.538Z,728.19
2017-03-19T01:11:55.516Z,728.04
2017-03-19T01:12:55.500Z,728.45
2017-03-19T01:13:55.480Z,728.25
2017-03-19T01:14:55.462Z,728.31
2017-03-19T01:15:55.441Z,728.2
2017-03-19T01:16:55.420Z,728.19
2017-03-19T01:17:55.404Z,728.4
2017-03-19T01:18:55.386Z,728.41
2017-03-19T01:19:55.366Z,727.99
2017-03-19T01:20:55.349Z,728.54
2017-03-19T01:21:55.328Z,728.2
2017-03-19T01:22:55.309Z,728.53
2017-03-19T01:23:55.289Z,728.19
2017-03-19T01:24:55.267Z,728.57
2017-03-19T01:25:55.252Z,728.38
2017-03-19T01:26:55.226Z,728.42
2017-03-19T01:27:55.212Z,728.28
2017-03-19T01:28:55.193Z,727.88
2017-03-19T01:29:55.170Z,728.15
2017-03-19T01:30:55.154Z,728.18
2017-03-19T01:31:55.133Z,728.04
2017-03-19T01:32:55.111Z,728.13
2017-03-19T01:33:55.097Z,728.34
2017-03-19T01:34:55.074Z,728.32
2017-03-19T01:35:55.054Z,728.41
2017-03-19T01:36:55.036Z,728.33
2017-03-19T01:37:55.017Z,728.05
2017-03-19T01:38:55.001Z,728.39
2017-03-19T01:39:54.978Z,728.5
2017-03-19T01:40:54.959Z,728.63
2017-03-19T01:41:54.941Z,728.4
2017-03-19T01:42:54.921Z,728.25
2017-03-19T01:43:54.905Z,728.51
2017-03-19T01:44:54.887Z,728.36
2017-03-19T01:45:54.861Z,728.76
2017-03-19T01:46:54.846Z,728.06
2017-03-19T01:47:54.825Z,728.2
2017-03-19T01:48:54.805Z,728.3
2017-03-19T01:49:54.786Z,728.26
2017-03-19T01:50:54.765Z,728.02
2017-03-19T01:51:54.752Z,728.38
2017-03-19T01:52:54.727Z,728.27
2017-03-19T01:53:54.709Z,728.44
2017-03-19T01:54:54.689Z,728.39
2017-03-19T01:55:54.669Z,728.61
2017-03-19T01:56:54.650Z,728.48
2017-03-19T01:57:54.635Z,728.39
2017-03-19T01:58:54.641Z,728.34
2017-03-19T01:59:54.592Z,728.42
2017-03-19T02:00:54.577Z,728.5
2017-03-19T02:01:54.558Z,728.6
2017-03-19T02:02:54.539Z,728.31
2017-03-19T02:03:54.521Z,728.41
2017-03-19T02:04:54.496Z,728.2
2017-03-19T02:05:54.480Z,728.32
2017-03-19T02:06:54.461Z,728.58
2017-03-19T02:07:54.437Z,728.56
2017-03-19T02:08:54.424Z,728.36
2017-03-19T02:09:54.406Z,728.58
2017-03-19T02:10:54.385Z,728.54
2017-03-19T02:11:54.362Z,728.5
2017-03-19T02:12:54.344Z,728.76
2017-03-19T02:13:54.324Z,728.36
2017-03-19T02:14:54.305Z,728.42
2017-03-19T02:15:54.289Z,728.56
2017-03-19T02:16:54.270Z,728.35
2017-03-19T02:17:54.248Z,728.2
2017-03-19T02:18:54.231Z,728.52
2017-03-19T02:19:54.209Z,728.36
2017-03-19T02:20:54.194Z,728.26
2017-03-19T02:21:54.170Z,728.51
2017-03-19T02:22:54.150Z,728.58
2017-03-19T02:23:54.133Z,728.58
2017-03-19T02:24:54.113Z,728.64
2017-03-19T02:25:54.097Z,728.49
2017-03-19T02:26:54.078Z,728.68
2017-03-19T02:27:54.059Z,728.56
2017-03-19T02:28:54.039Z,728.19
2017-03-19T02:29:54.020Z,728.62
2017-03-19T02:30:53.997Z,728.46
2017-03-19T02:31:53.978Z,728.51
2017-03-19T02:32:53.962Z,728.6
2017-03-19T02:33:53.945Z,728.5
2017-03-19T02:34:53.925Z,728.35
2017-03-19T02:35:53.905Z,728.37
2017-03-19T02:36:53.886Z,728.39
2017-03-19T02:37:53.863Z,728.47
2017-03-19T02:38:53.853Z,728.5
2017-03-19T02:39:53.827Z,728.46
2017-03-19T02:40:53.807Z,728.42
2017-03-19T02:41:53.787Z,728.55
2017-03-19T02:42:53.773Z,728.23
2017-03-19T02:43:53.752Z,728.67
2017-03-19T02:44:53.733Z,728.66
2017-03-19T02:45:53.711Z,728.53
2017-03-19T02:46:53.693Z,728.58
2017-03-19T02:47:53.676Z,728.59
2017-03-19T02:48:53.659Z,728.61
2017-03-19T02:49:53.635Z,728.79
2017-03-19T02:50:53.618Z,728.73
2017-03-19T02:51:53.596Z,728.78
2017-03-19T02:52:53.579Z,728.59
2017-03-19T02:53:53.564Z,728.67
2017-03-19T02:54:53.545Z,728.61
2017-03-19T02:55:53.524Z,728.46
2017-03-19T02:56:53.507Z,728.89
2017-03-19T02:57:53.488Z,728.37
2017-03-19T02:58:53.466Z,728.83
2017-03-19T02:59:53.456Z,728.66
2017-03-19T03:00:53.431Z,728.67
2017-03-19T03:01:53.409Z,728.56
2017-03-19T03:02:53.394Z,728.49
2017-03-19T03:03:53.375Z,728.59
2017-03-19T03:04:53.353Z,728.85
2017-03-19T03:05:53.332Z,728.47
2017-03-19T03:06:53.317Z,728.61
2017-03-19T03:07:53.299Z,728.98
2017-03-19T03:08:53.278Z,728.46
2017-03-19T03:09:53.262Z,728.69
2017-03-19T03:10:53.243Z,728.87
2017-03-19T03:11:53.224Z,729.04
2017-03-19T03:12:53.204Z,728.78
2017-03-19T03:13:53.186Z,728.42
2017-03-19T03:14:53.168Z,728.83
2017-03-19T03:15:53.144Z,728.75
2017-03-19T03:16:53.125Z,728.8
2017-03-19T03:17:53.111Z,728.59
2017-03-19T03:18:53.092Z,728.64
2017-03-19T03:19:53.074Z,728.68
2017-03-19T03:20:53.054Z,728.6
2017-03-19T03:21:53.035Z,728.82
2017-03-19T03:22:53.014Z,728.75
2017-03-19T03:23:52.997Z,728.98
2017-03-19T03:24:52.975Z,728.88
2017-03-19T03:25:52.957Z,728.88
2017-03-19T03:26:52.942Z,728.78
2017-03-19T03:27:52.922Z,728.9
2017-03-19T03:28:52.904Z,728.71
2017-03-19T03:29:52.886Z,728.82
2017-03-19T03:30:52.862Z,729
2017-03-19T03:31:52.844Z,728.71
2017-03-19T03:32:52.826Z,728.92
2017-03-19T03:33:52.808Z,728.8
2017-03-19T03:34:52.789Z,728.79
2017-03-19T03:35:52.774Z,728.85
2017-03-19T03:36:52.756Z,728.69
2017-03-19T03:37:52.735Z,728.9
2017-03-19T03:38:52.714Z,728.79
2017-03-19T03:39:52.695Z,728.77
2017-03-19T03:40:52.676Z,728.73
2017-03-19T03:41:52.662Z,729
2017-03-19T03:42:52.646Z,729.03
2017-03-19T03:43:52.626Z,728.98
2017-03-19T03:44:52.603Z,728.99
2017-03-19T03:45:52.588Z,729.23
2017-03-19T03:46:52.569Z,729.01
2017-03-19T03:47:52.551Z,728.51
2017-03-19T03:48:52.529Z,728.53
2017-03-19T03:49:52.512Z,728.87
2017-03-19T03:50:52.490Z,728.89
2017-03-19T03:51:52.477Z,728.89
2017-03-19T03:52:52.454Z,728.73
2017-03-19T03:53:52.438Z,729.18
2017-03-19T03:54:52.421Z,728.95
2017-03-19T03:55:52.397Z,728.5
2017-03-19T03:56:52.383Z,728.88
2017-03-19T03:57:52.361Z,728.7
2017-03-19T03:58:52.341Z,728.76
2017-03-19T03:59:52.327Z,729.23
2017-03-19T04:00:52.307Z,728.94
2017-03-19T04:01:52.284Z,728.95
2017-03-19T04:02:52.268Z,728.67
2017-03-19T04:03:52.251Z,728.91
2017-03-19T04:04:52.233Z,729
2017-03-19T04:05:52.213Z,728.89
2017-03-19T04:06:52.191Z,728.69
2017-03-19T04:07:52.172Z,728.53
2017-03-19T04:08:52.157Z,728.24
2017-03-19T04:09:52.138Z,728.73
2017-03-19T04:10:52.116Z,728.76
2017-03-19T04:11:52.097Z,728.14
2017-03-19T04:12:52.077Z,728.82
2017-03-19T04:13:52.059Z,728.58
2017-03-19T04:14:52.039Z,728.94
2017-03-19T04:15:52.020Z,728.53
2017-03-19T04:16:52.006Z,728.96
2017-03-19T04:17:51.984Z,729.19
2017-03-19T04:18:51.962Z,729.28
2017-03-19T04:19:51.944Z,729.45
2017-03-19T04:20:51.928Z,729.4
2017-03-19T04:21:51.905Z,729.09
2017-03-19T04:22:51.890Z,729.41
2017-03-19T04:23:51.868Z,729.39
2017-03-19T04:24:51.849Z,729.63
2017-03-19T04:25:51.833Z,729.45
2017-03-19T04:26:51.814Z,729.09
2017-03-19T04:27:51.792Z,729.26
2017-03-19T04:28:51.773Z,729.66
2017-03-19T04:29:51.756Z,729.14
2017-03-19T04:30:51.734Z,729.38
2017-03-19T04:31:51.721Z,729.77
2017-03-19T04:32:51.703Z,729.57
2017-03-19T04:33:51.680Z,729.94
2017-03-19T04:34:51.665Z,729.49
2017-03-19T04:35:51.642Z,729.3
2017-03-19T04:36:51.627Z,729.37
2017-03-19T04:37:51.609Z,729.46
2017-03-19T04:38:51.586Z,729.57
2017-03-19T04:39:51.568Z,729.4
2017-03-19T04:40:51.553Z,729.38
2017-03-19T04:41:51.531Z,729.38
2017-03-19T04:42:51.512Z,730.01
2017-03-19T04:43:51.494Z,729.53
2017-03-19T04:44:51.474Z,729.36
2017-03-19T04:45:51.456Z,729.45
2017-03-19T04:46:51.437Z,729.46
2017-03-19T04:47:51.418Z,729.32
2017-03-19T04:48:51.401Z,729.41
2017-03-19T04:49:51.385Z,729.39
2017-03-19T04:50:51.368Z,729.41
2017-03-19T04:51:51.343Z,729.07
2017-03-19T04:52:51.330Z,729.34
2017-03-19T04:53:51.311Z,729.64
2017-03-19T04:54:51.288Z,729.54
2017-03-19T04:55:51.273Z,729.42
2017-03-19T04:56:51.251Z,729.7
2017-03-19T04:57:51.232Z,729.69
2017-03-19T04:58:51.213Z,729.5
2017-03-19T04:59:51.199Z,729.68
2017-03-19T05:00:51.177Z,729.45
2017-03-19T05:01:51.157Z,729.31
2017-03-19T05:02:51.143Z,729.5
2017-03-19T05:03:51.124Z,729.41
2017-03-19T05:04:51.103Z,729.47
2017-03-19T05:05:51.087Z,729.57
2017-03-19T05:06:51.074Z,729.56
2017-03-19T05:07:51.051Z,729.41
2017-03-19T05:08:51.030Z,729.44
2017-03-19T05:09:51.014Z,729.52
2017-03-19T05:10:50.996Z,729.16
2017-03-19T05:11:50.973Z,729.4
2017-03-19T05:12:50.959Z,729.34
2017-03-19T05:13:50.940Z,729.19
2017-03-19T05:14:50.922Z,729.46
2017-03-19T05:15:50.903Z,729.81
2017-03-19T05:16:50.878Z,729.62
2017-03-19T05:17:50.866Z,729.61
2017-03-19T05:18:50.847Z,729.93
2017-03-19T05:19:50.829Z,729.72
2017-03-19T05:20:50.804Z,729.93
2017-03-19T05:21:50.787Z,729.97
2017-03-19T05:22:50.773Z,729.61
2017-03-19T05:23:50.755Z,729.83
2017-03-19T05:24:50.932Z,729.9
2017-03-19T05:25:50.713Z,729.72
2017-03-19T05:26:50.695Z,729.71
2017-03-19T05:27:50.676Z,730
2017-03-19T05:28:50.661Z,729.96
2017-03-19T05:29:50.639Z,729.97
2017-03-19T05:30:50.625Z,730.15
2017-03-19T05:31:50.601Z,729.94
2017-03-19T05:32:50.587Z,729.83
2017-03-19T05:33:50.567Z,729.8
2017-03-19T05:34:50.547Z,729.78
2017-03-19T05:35:50.532Z,729.85
2017-03-19T05:36:50.510Z,729.76
2017-03-19T05:37:50.496Z,730.01
2017-03-19T05:38:50.477Z,729.45
2017-03-19T05:39:50.454Z,730
2017-03-19T05:40:50.437Z,729.69
2017-03-19T05:41:50.427Z,729.95
2017-03-19T05:42:50.398Z,729.72
2017-03-19T05:43:50.385Z,729.98
2017-03-19T05:44:50.366Z,730.05
2017-03-19T05:45:50.344Z,730.06
2017-03-19T05:46:50.328Z,729.99
2017-03-19T05:47:50.311Z,730.04
2017-03-19T05:48:50.293Z,730.37
2017-03-19T05:49:50.275Z,729.99
2017-03-19T05:50:50.251Z,730.28
2017-03-19T05:51:50.237Z,730.17
2017-03-19T05:52:50.223Z,730.13
2017-03-19T05:53:50.398Z,729.82
2017-03-19T05:54:50.182Z,729.84
2017-03-19T05:55:50.163Z,729.68
2017-03-19T05:56:50.146Z,729.81
2017-03-19T05:57:50.127Z,729.8
2017-03-19T05:58:50.105Z,729.95
2017-03-19T05:59:50.090Z,729.98
2017-03-19T06:00:50.067Z,730.09
2017-03-19T06:01:50.055Z,730.15
2017-03-19T06:02:50.035Z,729.98
2017-03-19T06:03:50.017Z,729.97
2017-03-19T06:04:49.999Z,730.08
2017-03-19T06:05:49.979Z,730.23
2017-03-19T06:06:49.959Z,729.79
2017-03-19T06:07:49.939Z,730.26
2017-03-19T06:08:49.923Z,729.62
2017-03-19T06:09:49.903Z,729.8
2017-03-19T06:10:49.889Z,729.86
2017-03-19T06:11:49.863Z,730.16
2017-03-19T06:12:49.851Z,730.24
2017-03-19T06:13:49.833Z,730.51
2017-03-19T06:14:49.814Z,730.13
2017-03-19T06:15:49.795Z,730.16
2017-03-19T06:16:49.774Z,730.02
2017-03-19T06:17:49.758Z,730.2
2017-03-19T06:18:49.740Z,730.11
2017-03-19T06:19:49.716Z,730.44
2017-03-19T06:20:49.699Z,730.27
2017-03-19T06:21:49.682Z,730
2017-03-19T06:22:49.662Z,729.95
2017-03-19T06:23:49.643Z,730.15
2017-03-19T06:24:49.627Z,730.32
2017-03-19T06:25:49.608Z,730.23
2017-03-19T06:26:49.589Z,730.16
2017-03-19T06:27:49.775Z,730.16
2017-03-19T06:28:49.557Z,730.27
2017-03-19T06:29:49.536Z,730.24
2017-03-19T06:30:49.521Z,730.44
2017-03-19T06:31:49.500Z,730.34
2017-03-19T06:32:49.482Z,730.31
2017-03-19T06:33:49.466Z,730.16
2017-03-19T06:34:49.445Z,730.26
2017-03-19T06:35:49.430Z,730.12
2017-03-19T06:36:49.412Z,730.2
2017-03-19T06:37:49.389Z,730.32
2017-03-19T06:38:49.375Z,730.03
2017-03-19T06:39:49.357Z,730.39
2017-03-19T06:40:49.339Z,730.32
2017-03-19T06:41:49.317Z,730.32
2017-03-19T06:42:49.299Z,730.57
2017-03-19T06:43:49.281Z,730.4
2017-03-19T06:44:49.265Z,730.24
2017-03-19T06:45:49.249Z,730.47
2017-03-19T06:46:49.229Z,730.44
2017-03-19T06:47:49.214Z,730.43
2017-03-19T06:48:49.194Z,730.47
2017-03-19T06:49:49.171Z,730.61
2017-03-19T06:50:49.158Z,730.55
2017-03-19T06:51:49.139Z,730.93
2017-03-19T06:52:49.117Z,730.75
2017-03-19T06:53:49.103Z,730.5
2017-03-19T06:54:49.081Z,730.64
2017-03-19T06:55:49.065Z,730.44
2017-03-19T06:56:49.043Z,730.54
2017-03-19T06:57:49.025Z,730.46
2017-03-19T06:58:49.012Z,730.47
2017-03-19T06:59:48.989Z,730.56
2017-03-19T07:00:48.971Z,730.66
2017-03-19T07:01:48.957Z,730.33
2017-03-19T07:02:48.937Z,730.67
2017-03-19T07:03:48.921Z,730.62
2017-03-19T07:04:48.927Z,730.45
2017-03-19T07:05:48.888Z,730.5
2017-03-19T07:06:48.862Z,730.71
2017-03-19T07:07:48.848Z,730.66
2017-03-19T07:08:48.831Z,730.37
2017-03-19T07:09:48.808Z,729.99
2017-03-19T07:10:48.789Z,730.47
2017-03-19T07:11:48.778Z,730.51
2017-03-19T07:12:48.754Z,730.43
2017-03-19T07:13:48.740Z,730.72
2017-03-19T07:14:48.721Z,730.75
2017-03-19T07:15:48.700Z,730.5
2017-03-19T07:16:48.686Z,730.6
2017-03-19T07:17:48.668Z,730.61
2017-03-19T07:18:48.648Z,730.61
2017-03-19T07:19:48.628Z,730.39
2017-03-19T07:20:48.615Z,730.62
2017-03-19T07:21:48.592Z,730.59
2017-03-19T07:22:48.579Z,730.46
2017-03-19T07:23:48.559Z,730.33
2017-03-19T07:24:48.542Z,730.36
2017-03-19T07:25:48.546Z,730.28
2017-03-19T07:26:48.503Z,730.61
2017-03-19T07:27:48.499Z,730.44
2017-03-19T07:28:48.468Z,730.52
2017-03-19T07:29:48.450Z,730.51
2017-03-19T07:30:48.436Z,730.92
2017-03-19T07:31:48.418Z,730.94
2017-03-19T07:32:48.400Z,730.58
2017-03-19T07:33:48.383Z,730.67
2017-03-19T07:34:48.361Z,730.98
2017-03-19T07:35:48.343Z,730.57
2017-03-19T07:36:48.330Z,730.83
2017-03-19T07:37:48.313Z,730.62
2017-03-19T07:38:48.295Z,730.81
2017-03-19T07:39:48.273Z,730.77
2017-03-19T07:40:48.256Z,730.81
2017-03-19T07:41:48.238Z,730.72
2017-03-19T07:42:48.221Z,730.88
2017-03-19T07:43:48.202Z,730.88
2017-03-19T07:44:48.186Z,730.46
2017-03-19T07:45:48.169Z,730.68
2017-03-19T07:46:48.149Z,730.74
2017-03-19T07:47:48.137Z,730.72
2017-03-19T07:48:48.121Z,730.86
2017-03-19T07:49:48.097Z,731.06
2017-03-19T07:50:48.080Z,731.14
2017-03-19T07:51:48.066Z,730.94
2017-03-19T07:52:48.046Z,730.94
2017-03-19T07:53:48.029Z,730.9
2017-03-19T07:54:48.015Z,731.12
2017-03-19T07:55:47.992Z,731.1
2017-03-19T07:56:47.980Z,731.06
2017-03-19T07:57:47.957Z,731.36
2017-03-19T07:58:47.941Z,731.12
2017-03-19T07:59:47.923Z,730.96
2017-03-19T08:00:47.911Z,731.05
2017-03-19T08:01:47.893Z,731.16
2017-03-19T08:02:47.878Z,731.27
2017-03-19T08:03:47.857Z,731.09
2017-03-19T08:04:47.844Z,730.9
2017-03-19T08:05:47.825Z,730.94
2017-03-19T08:06:47.808Z,730.89
2017-03-19T08:07:47.788Z,731.12
2017-03-19T08:08:47.771Z,731.08
2017-03-19T08:09:47.757Z,730.95
2017-03-19T08:10:47.742Z,730.99
2017-03-19T08:11:47.724Z,731.05
2017-03-19T08:12:47.703Z,731.18
2017-03-19T08:13:47.686Z,731.17
2017-03-19T08:14:47.671Z,731.09
2017-03-19T08:15:47.657Z,731.09
2017-03-19T08:16:47.642Z,730.84
2017-03-19T08:17:47.620Z,731.01
2017-03-19T08:18:47.607Z,731.05
2017-03-19T08:19:47.590Z,731.08
2017-03-19T08:20:47.574Z,731.08
2017-03-19T08:21:47.555Z,731.11
2017-03-19T08:22:47.539Z,731
2017-03-19T08:23:47.524Z,731.03
2017-03-19T08:24:47.507Z,731.15
2017-03-19T08:25:47.490Z,731.13
2017-03-19T08:26:47.469Z,731.02
2017-03-19T08:27:47.453Z,730.89
2017-03-19T08:28:47.441Z,730.77
2017-03-19T08:29:47.426Z,731.02
2017-03-19T08:30:47.407Z,731.13
2017-03-19T08:31:47.391Z,731
2017-03-19T08:32:47.373Z,730.71
2017-03-19T08:33:47.355Z,730.88
2017-03-19T08:34:47.341Z,731.02
2017-03-19T08:35:47.325Z,731.13
2017-03-19T08:36:47.305Z,731.08
2017-03-19T08:37:47.291Z,731.11
2017-03-19T08:38:47.279Z,730.86
2017-03-19T08:39:47.253Z,730.93
2017-03-19T08:40:47.237Z,730.86
2017-03-19T08:41:47.224Z,731.07
2017-03-19T08:42:47.205Z,731.23
2017-03-19T08:43:47.186Z,731.19
2017-03-19T08:55:46.990Z,731.11
2017-03-19T08:56:46.973Z,731.01
2017-03-19T08:57:46.956Z,731.16
2017-03-19T09:47:46.101Z,731.53
2017-03-19T09:48:46.084Z,731.29
2017-03-19T09:49:46.063Z,731.03
2017-03-19T09:50:46.046Z,731.12
2017-03-19T09:51:46.030Z,731.31
2017-03-19T09:52:46.015Z,731.29
2017-03-19T09:53:45.998Z,731.37
2017-03-19T09:54:45.984Z,731.2
2017-03-19T09:55:45.969Z,731.16
2017-03-19T09:56:45.952Z,731.26
2017-03-19T09:57:45.937Z,731.26
2017-03-19T09:58:45.920Z,731.09
2017-03-19T09:59:45.903Z,731.16
2017-03-19T10:06:45.790Z,731.36
2017-03-19T10:07:45.771Z,731.23
2017-03-19T10:08:45.759Z,731.25
2017-03-19T10:09:45.741Z,731.11
2017-03-19T10:28:45.434Z,731.19
2017-03-19T10:29:45.417Z,731.22
2017-03-19T10:30:45.401Z,731.26
2017-03-19T10:31:45.382Z,731.34
2017-03-19T10:32:45.369Z,731.15
2017-03-19T10:35:45.315Z,731.12
2017-03-19T10:36:45.302Z,731
2017-03-19T10:48:45.112Z,731.26
2017-03-19T10:49:45.096Z,731.29
2017-03-19T10:50:45.083Z,731.28
2017-03-19T10:51:45.061Z,731.39
2017-03-19T10:52:45.050Z,731.23
2017-03-19T10:53:45.029Z,731.14
2017-03-19T10:54:45.014Z,731.23
2017-03-19T10:55:44.999Z,731.23
2017-03-19T10:56:44.983Z,731.26
2017-03-19T10:57:44.970Z,731.32
2017-03-19T10:58:44.954Z,731.14
2017-03-19T10:59:44.938Z,730.78
2017-03-19T11:00:44.926Z,731.01
2017-03-19T11:01:44.906Z,731.05
2017-03-19T11:02:44.896Z,730.99
2017-03-19T11:03:44.881Z,731.13
2017-03-19T11:04:44.863Z,731.02
2017-03-19T11:05:44.848Z,730.9
2017-03-19T11:06:44.828Z,731.11
